CheckWX is a tool to help pilots better visualize weather data.  It is not intended as a substitute for an official pre-flight weather briefing.

07:18:09 UTC

KBED TAF
Laurence G Hanscom Field Airport
Bedford, Massachusetts, USA
KBED 180531Z 1806/1906 36003KT P6SM SCT045 OVC070 FM180900 01004KT P6SM FEW060 FEW070 FM181300 03007KT P6SM FEW060 SCT200 FM181700 05009KT P6SM FEW060 SCT150 FM182100 07008KT P6SM SKC FM190200 00000KT P6SM SKC

Sep-18@
06:00 UTC

Sep-18 @ 06:00 UTC

Sep-18@
09:00 UTC

Sep-18 @ 09:00 UTC

KBED 180531Z 1806/1906 36003KT P6SM SCT045 OVC070
Wind
  • 360° at 3 KTS
Cloud Levels
  • Scattered at 4,500' AGL
  • Overcast at 7,000' AGL

Sep-18@
09:00 UTC

Sep-18 @ 09:00 UTC

Sep-18@
13:00 UTC

Sep-18 @ 13:00 UTC

FM180900 01004KT P6SM FEW060 FEW070

From

From Standard forecast or significant change

Wind
  • 010° at 4 KTS
Cloud Levels
  • Few at 6,000' AGL
  • Few at 7,000' AGL

Sep-18@
13:00 UTC

Sep-18 @ 13:00 UTC

Sep-18@
17:00 UTC

Sep-18 @ 17:00 UTC

FM181300 03007KT P6SM FEW060 SCT200

From

From Standard forecast or significant change

Wind
  • 030° at 7 KTS
Cloud Levels
  • Few at 6,000' AGL
  • Scattered at 20,000' AGL

Sep-18@
17:00 UTC

Sep-18 @ 17:00 UTC

Sep-18@
21:00 UTC

Sep-18 @ 21:00 UTC

FM181700 05009KT P6SM FEW060 SCT150

From

From Standard forecast or significant change

Wind
  • 050° at 9 KTS
Cloud Levels
  • Few at 6,000' AGL
  • Scattered at 15,000' AGL

Sep-18@
21:00 UTC

Sep-18 @ 21:00 UTC

Sep-19@
02:00 UTC

Sep-19 @ 02:00 UTC

FM182100 07008KT P6SM SKC

From

From Standard forecast or significant change

Wind
  • 070° at 8 KTS
Cloud Levels
  • Clear skies

Sep-19@
02:00 UTC

Sep-19 @ 02:00 UTC

Sep-19@
06:00 UTC

Sep-19 @ 06:00 UTC

FM190200 00000KT P6SM SKC

From

From Standard forecast or significant change

Cloud Levels
  • Clear skies